16°C Temp
8°C Dewpoint
59% Humidity
Temperature
11 KM/H
7 MPH
6 KTS
200°
South South
West

Wind Speed
Clear
Conditions
Pressure 1008.81 (hPa) - 29.79 (in)
Visibility 6.0 (mi) - 9.7 (km)

Current Conditions
LIRI
Location 25(km)
Metar :LIRI 231550Z 20006KT 170V230 CAVOK 16/08 Q1009
Fri 23rd February 16:50 pm

Airport
  Metar Aviation API Data Provided by https://www.checkwx.com/ PHP scripts by weather34.com ©2024